sensor_id;sensor_type;location;lat;lon;timestamp;temperature;humidity
38866;DHT22;62686;48.984;8.394;2023-05-07T00:01:39;12.70;99.90
38866;DHT22;62686;48.984;8.394;2023-05-07T00:04:07;12.70;99.90
38866;DHT22;62686;48.984;8.394;2023-05-07T00:06:36;12.80;99.90
38866;DHT22;62686;48.984;8.394;2023-05-07T00:09:04;12.80;99.90
38866;DHT22;62686;48.984;8.394;2023-05-07T00:11:33;12.80;99.90
38866;DHT22;62686;48.984;8.394;2023-05-07T00:14:02;12.90;99.90
38866;DHT22;62686;48.984;8.394;2023-05-07T00:16:31;12.90;99.90
38866;DHT22;62686;48.984;8.394;2023-05-07T00:19:01;12.90;99.90
38866;DHT22;62686;48.984;8.394;2023-05-07T00:21:29;12.90;99.90
38866;DHT22;62686;48.984;8.394;2023-05-07T00:23:57;12.90;99.90
38866;DHT22;62686;48.984;8.394;2023-05-07T00:26:25;12.90;99.90
38866;DHT22;62686;48.984;8.394;2023-05-07T00:28:53;12.80;99.90
38866;DHT22;62686;48.984;8.394;2023-05-07T00:31:21;12.80;99.90
38866;DHT22;62686;48.984;8.394;2023-05-07T00:33:50;12.90;99.90
38866;DHT22;62686;48.984;8.394;2023-05-07T00:36:19;12.90;99.90
38866;DHT22;62686;48.984;8.394;2023-05-07T00:38:47;12.80;99.90
38866;DHT22;62686;48.984;8.394;2023-05-07T00:41:15;12.80;99.90
38866;DHT22;62686;48.984;8.394;2023-05-07T00:43:44;12.80;99.90
38866;DHT22;62686;48.984;8.394;2023-05-07T00:46:13;12.80;99.90
38866;DHT22;62686;48.984;8.394;2023-05-07T00:48:42;12.80;99.90
38866;DHT22;62686;48.984;8.394;2023-05-07T00:51:11;12.80;99.90
38866;DHT22;62686;48.984;8.394;2023-05-07T00:53:41;12.70;99.90
38866;DHT22;62686;48.984;8.394;2023-05-07T00:56:09;12.70;99.90
38866;DHT22;62686;48.984;8.394;2023-05-07T00:58:38;12.70;99.90
38866;DHT22;62686;48.984;8.394;2023-05-07T01:01:06;12.60;99.90
38866;DHT22;62686;48.984;8.394;2023-05-07T01:03:34;12.60;99.90
38866;DHT22;62686;48.984;8.394;2023-05-07T01:06:03;12.70;99.90
38866;DHT22;62686;48.984;8.394;2023-05-07T01:08:32;12.60;99.90
38866;DHT22;62686;48.984;8.394;2023-05-07T01:11:03;12.60;99.90
38866;DHT22;62686;48.984;8.394;2023-05-07T01:13:31;12.60;99.90
38866;DHT22;62686;48.984;8.394;2023-05-07T01:16:00;12.50;99.90
38866;DHT22;62686;48.984;8.394;2023-05-07T01:18:28;12.50;99.90
38866;DHT22;62686;48.984;8.394;2023-05-07T01:20:58;12.50;99.90
38866;DHT22;62686;48.984;8.394;2023-05-07T01:23:29;12.50;99.90
38866;DHT22;62686;48.984;8.394;2023-05-07T01:25:58;12.50;99.90
38866;DHT22;62686;48.984;8.394;2023-05-07T01:28:26;12.50;99.90
38866;DHT22;62686;48.984;8.394;2023-05-07T01:31:00;12.70;99.90
38866;DHT22;62686;48.984;8.394;2023-05-07T01:33:33;12.70;99.90
38866;DHT22;62686;48.984;8.394;2023-05-07T01:36:03;12.70;99.90
38866;DHT22;62686;48.984;8.394;2023-05-07T01:38:35;12.80;99.90
38866;DHT22;62686;48.984;8.394;2023-05-07T01:41:04;12.80;99.90
38866;DHT22;62686;48.984;8.394;2023-05-07T01:43:33;12.80;99.90
38866;DHT22;62686;48.984;8.394;2023-05-07T01:46:02;12.80;99.90
38866;DHT22;62686;48.984;8.394;2023-05-07T01:48:31;12.80;99.90
38866;DHT22;62686;48.984;8.394;2023-05-07T01:51:01;12.70;99.90
38866;DHT22;62686;48.984;8.394;2023-05-07T01:53:37;12.60;99.90
38866;DHT22;62686;48.984;8.394;2023-05-07T01:56:06;12.70;99.90
38866;DHT22;62686;48.984;8.394;2023-05-07T01:58:34;12.60;99.90
38866;DHT22;62686;48.984;8.394;2023-05-07T02:01:02;12.60;99.90
38866;DHT22;62686;48.984;8.394;2023-05-07T02:03:30;12.60;99.90
38866;DHT22;62686;48.984;8.394;2023-05-07T02:05:58;12.50;99.90
38866;DHT22;62686;48.984;8.394;2023-05-07T02:08:27;12.40;99.90
38866;DHT22;62686;48.984;8.394;2023-05-07T02:10:56;12.40;99.90
38866;DHT22;62686;48.984;8.394;2023-05-07T02:13:26;12.40;99.90
38866;DHT22;62686;48.984;8.394;2023-05-07T02:15:54;12.40;99.90
38866;DHT22;62686;48.984;8.394;2023-05-07T02:18:23;12.30;99.90
38866;DHT22;62686;48.984;8.394;2023-05-07T02:20:51;12.30;99.90
38866;DHT22;62686;48.984;8.394;2023-05-07T02:23:19;12.30;99.90
38866;DHT22;62686;48.984;8.394;2023-05-07T02:25:47;12.30;99.90
38866;DHT22;62686;48.984;8.394;2023-05-07T02:28:17;12.20;99.90
38866;DHT22;62686;48.984;8.394;2023-05-07T02:30:45;12.10;99.90
38866;DHT22;62686;48.984;8.394;2023-05-07T02:33:13;12.10;99.90
38866;DHT22;62686;48.984;8.394;2023-05-07T02:35:41;12.00;99.90
38866;DHT22;62686;48.984;8.394;2023-05-07T02:38:09;12.00;99.90
38866;DHT22;62686;48.984;8.394;2023-05-07T02:40:38;12.10;99.90
38866;DHT22;62686;48.984;8.394;2023-05-07T02:43:06;12.10;99.90
38866;DHT22;62686;48.984;8.394;2023-05-07T02:45:36;12.10;99.90
38866;DHT22;62686;48.984;8.394;2023-05-07T02:48:05;12.00;99.90
38866;DHT22;62686;48.984;8.394;2023-05-07T02:50:33;12.00;99.90
38866;DHT22;62686;48.984;8.394;2023-05-07T02:53:01;12.00;99.90
38866;DHT22;62686;48.984;8.394;2023-05-07T02:55:30;12.00;99.90
38866;DHT22;62686;48.984;8.394;2023-05-07T02:57:58;12.00;99.90
38866;DHT22;62686;48.984;8.394;2023-05-07T03:00:26;12.00;99.90
38866;DHT22;62686;48.984;8.394;2023-05-07T03:02:56;12.00;99.90
38866;DHT22;62686;48.984;8.394;2023-05-07T03:05:24;12.00;99.90
38866;DHT22;62686;48.984;8.394;2023-05-07T03:07:52;12.10;99.90
38866;DHT22;62686;48.984;8.394;2023-05-07T03:10:20;12.10;99.90
38866;DHT22;62686;48.984;8.394;2023-05-07T03:12:48;12.10;99.90
38866;DHT22;62686;48.984;8.394;2023-05-07T03:15:16;12.00;99.90
38866;DHT22;62686;48.984;8.394;2023-05-07T03:17:45;12.00;99.90
38866;DHT22;62686;48.984;8.394;2023-05-07T03:20:14;11.90;99.90
38866;DHT22;62686;48.984;8.394;2023-05-07T03:22:43;11.90;99.90
38866;DHT22;62686;48.984;8.394;2023-05-07T03:25:11;12.00;99.90
38866;DHT22;62686;48.984;8.394;2023-05-07T03:27:39;11.90;99.90
38866;DHT22;62686;48.984;8.394;2023-05-07T03:30:09;11.90;99.90
38866;DHT22;62686;48.984;8.394;2023-05-07T03:32:38;11.90;99.90
38866;DHT22;62686;48.984;8.394;2023-05-07T03:35:06;11.80;99.90
38866;DHT22;62686;48.984;8.394;2023-05-07T03:37:36;11.80;99.90
38866;DHT22;62686;48.984;8.394;2023-05-07T03:40:05;11.70;99.90
38866;DHT22;62686;48.984;8.394;2023-05-07T03:42:34;11.70;99.90
38866;DHT22;62686;48.984;8.394;2023-05-07T03:45:03;11.70;99.90
38866;DHT22;62686;48.984;8.394;2023-05-07T03:47:31;11.70;99.90
38866;DHT22;62686;48.984;8.394;2023-05-07T03:49:59;11.80;99.90
38866;DHT22;62686;48.984;8.394;2023-05-07T03:52:27;11.80;99.90
38866;DHT22;62686;48.984;8.394;2023-05-07T03:54:57;11.80;99.90
38866;DHT22;62686;48.984;8.394;2023-05-07T03:57:25;11.70;99.90
38866;DHT22;62686;48.984;8.394;2023-05-07T03:59:54;11.70;99.90
38866;DHT22;62686;48.984;8.394;2023-05-07T04:02:22;11.70;99.90
38866;DHT22;62686;48.984;8.394;2023-05-07T04:04:50;11.60;99.90
38866;DHT22;62686;48.984;8.394;2023-05-07T04:07:19;11.70;99.90
38866;DHT22;62686;48.984;8.394;2023-05-07T04:09:47;11.80;99.90
38866;DHT22;62686;48.984;8.394;2023-05-07T04:12:16;11.80;99.90
38866;DHT22;62686;48.984;8.394;2023-05-07T04:14:45;11.80;99.90
38866;DHT22;62686;48.984;8.394;2023-05-07T04:17:13;11.90;99.90
38866;DHT22;62686;48.984;8.394;2023-05-07T04:19:41;11.90;99.90
38866;DHT22;62686;48.984;8.394;2023-05-07T04:22:12;11.90;99.90
38866;DHT22;62686;48.984;8.394;2023-05-07T04:24:40;12.00;99.90
38866;DHT22;62686;48.984;8.394;2023-05-07T04:27:08;12.00;99.90
38866;DHT22;62686;48.984;8.394;2023-05-07T04:29:38;12.00;99.90
38866;DHT22;62686;48.984;8.394;2023-05-07T04:32:09;12.10;99.90
38866;DHT22;62686;48.984;8.394;2023-05-07T04:34:37;12.10;99.90
38866;DHT22;62686;48.984;8.394;2023-05-07T04:37:06;12.20;99.90
38866;DHT22;62686;48.984;8.394;2023-05-07T04:39:34;12.30;99.90
38866;DHT22;62686;48.984;8.394;2023-05-07T04:42:03;12.40;99.90
38866;DHT22;62686;48.984;8.394;2023-05-07T04:44:31;12.50;99.90
38866;DHT22;62686;48.984;8.394;2023-05-07T04:47:01;12.60;99.90
38866;DHT22;62686;48.984;8.394;2023-05-07T04:49:29;12.70;99.90
38866;DHT22;62686;48.984;8.394;2023-05-07T04:51:57;12.90;99.90
38866;DHT22;62686;48.984;8.394;2023-05-07T04:54:26;12.90;99.90
38866;DHT22;62686;48.984;8.394;2023-05-07T04:56:54;13.10;99.90
38866;DHT22;62686;48.984;8.394;2023-05-07T04:59:22;13.40;99.90
38866;DHT22;62686;48.984;8.394;2023-05-07T05:01:50;13.70;99.90
38866;DHT22;62686;48.984;8.394;2023-05-07T05:04:20;13.80;99.90
38866;DHT22;62686;48.984;8.394;2023-05-07T05:06:48;13.80;99.90
38866;DHT22;62686;48.984;8.394;2023-05-07T05:09:16;13.90;99.90
38866;DHT22;62686;48.984;8.394;2023-05-07T05:11:45;13.80;99.90
38866;DHT22;62686;48.984;8.394;2023-05-07T05:14:13;13.90;99.90
38866;DHT22;62686;48.984;8.394;2023-05-07T05:16:41;13.90;99.90
38866;DHT22;62686;48.984;8.394;2023-05-07T05:19:09;13.90;99.90
38866;DHT22;62686;48.984;8.394;2023-05-07T05:21:39;13.90;99.90
38866;DHT22;62686;48.984;8.394;2023-05-07T05:24:07;14.00;99.90
38866;DHT22;62686;48.984;8.394;2023-05-07T05:26:36;14.10;99.90
38866;DHT22;62686;48.984;8.394;2023-05-07T05:29:04;14.20;99.90
38866;DHT22;62686;48.984;8.394;2023-05-07T05:31:32;14.40;99.90
38866;DHT22;62686;48.984;8.394;2023-05-07T05:34:00;14.60;99.90
38866;DHT22;62686;48.984;8.394;2023-05-07T05:36:28;14.90;99.90
38866;DHT22;62686;48.984;8.394;2023-05-07T05:38:58;15.10;99.90
38866;DHT22;62686;48.984;8.394;2023-05-07T05:41:26;15.30;99.90
38866;DHT22;62686;48.984;8.394;2023-05-07T05:43:54;15.60;99.90
38866;DHT22;62686;48.984;8.394;2023-05-07T05:46:23;16.00;99.90
38866;DHT22;62686;48.984;8.394;2023-05-07T05:48:51;16.20;99.90
38866;DHT22;62686;48.984;8.394;2023-05-07T05:51:20;16.60;99.90
38866;DHT22;62686;48.984;8.394;2023-05-07T05:53:48;16.90;99.90
38866;DHT22;62686;48.984;8.394;2023-05-07T05:56:18;17.30;99.90
38866;DHT22;62686;48.984;8.394;2023-05-07T05:58:46;17.60;99.90
38866;DHT22;62686;48.984;8.394;2023-05-07T06:01:15;17.80;99.90
38866;DHT22;62686;48.984;8.394;2023-05-07T06:03:43;17.90;99.90
38866;DHT22;62686;48.984;8.394;2023-05-07T06:06:11;18.00;99.90
38866;DHT22;62686;48.984;8.394;2023-05-07T06:08:41;18.00;99.90
38866;DHT22;62686;48.984;8.394;2023-05-07T06:11:09;18.00;99.90
38866;DHT22;62686;48.984;8.394;2023-05-07T06:13:39;18.20;99.90
38866;DHT22;62686;48.984;8.394;2023-05-07T06:16:07;18.40;99.90
38866;DHT22;62686;48.984;8.394;2023-05-07T06:18:35;18.60;99.90
38866;DHT22;62686;48.984;8.394;2023-05-07T06:21:04;18.80;99.90
38866;DHT22;62686;48.984;8.394;2023-05-07T06:23:32;19.20;99.90
38866;DHT22;62686;48.984;8.394;2023-05-07T06:26:00;19.50;99.90
38866;DHT22;62686;48.984;8.394;2023-05-07T06:28:29;19.60;99.90
38866;DHT22;62686;48.984;8.394;2023-05-07T06:31:14;19.30;99.90
38866;DHT22;62686;48.984;8.394;2023-05-07T06:33:43;19.30;99.90
38866;DHT22;62686;48.984;8.394;2023-05-07T06:36:11;19.30;99.90
38866;DHT22;62686;48.984;8.394;2023-05-07T06:38:39;19.60;99.90
38866;DHT22;62686;48.984;8.394;2023-05-07T06:41:08;20.60;99.90
38866;DHT22;62686;48.984;8.394;2023-05-07T06:43:36;22.00;99.90
38866;DHT22;62686;48.984;8.394;2023-05-07T06:46:04;23.50;99.90
38866;DHT22;62686;48.984;8.394;2023-05-07T06:48:34;24.60;99.90
38866;DHT22;62686;48.984;8.394;2023-05-07T06:51:04;24.80;99.90
38866;DHT22;62686;48.984;8.394;2023-05-07T06:53:32;24.40;99.90
38866;DHT22;62686;48.984;8.394;2023-05-07T06:56:01;23.90;99.90
38866;DHT22;62686;48.984;8.394;2023-05-07T06:58:30;23.10;99.90
38866;DHT22;62686;48.984;8.394;2023-05-07T07:00:58;22.30;99.90
38866;DHT22;62686;48.984;8.394;2023-05-07T07:03:26;21.70;99.90
38866;DHT22;62686;48.984;8.394;2023-05-07T07:05:56;22.00;99.90
38866;DHT22;62686;48.984;8.394;2023-05-07T07:08:24;23.10;99.90
38866;DHT22;62686;48.984;8.394;2023-05-07T07:10:52;24.60;99.90
38866;DHT22;62686;48.984;8.394;2023-05-07T07:13:21;26.10;99.90
38866;DHT22;62686;48.984;8.394;2023-05-07T07:15:49;27.00;99.90
38866;DHT22;62686;48.984;8.394;2023-05-07T07:18:17;27.90;99.90
38866;DHT22;62686;48.984;8.394;2023-05-07T07:20:48;27.00;99.90
38866;DHT22;62686;48.984;8.394;2023-05-07T07:23:19;26.20;99.90
38866;DHT22;62686;48.984;8.394;2023-05-07T07:25:48;26.00;99.90
38866;DHT22;62686;48.984;8.394;2023-05-07T07:28:17;25.60;99.90
38866;DHT22;62686;48.984;8.394;2023-05-07T07:30:46;25.30;99.90
38866;DHT22;62686;48.984;8.394;2023-05-07T07:33:16;25.00;99.90
38866;DHT22;62686;48.984;8.394;2023-05-07T07:35:45;25.00;99.90
38866;DHT22;62686;48.984;8.394;2023-05-07T07:38:13;25.10;99.90
38866;DHT22;62686;48.984;8.394;2023-05-07T07:40:42;25.10;99.90
38866;DHT22;62686;48.984;8.394;2023-05-07T07:43:11;24.50;99.90
38866;DHT22;62686;48.984;8.394;2023-05-07T07:45:40;23.60;99.90
38866;DHT22;62686;48.984;8.394;2023-05-07T07:48:08;23.00;99.90
38866;DHT22;62686;48.984;8.394;2023-05-07T07:50:37;22.80;99.90
38866;DHT22;62686;48.984;8.394;2023-05-07T07:53:09;22.80;99.90
38866;DHT22;62686;48.984;8.394;2023-05-07T07:55:38;22.90;99.90
38866;DHT22;62686;48.984;8.394;2023-05-07T07:58:08;23.40;99.90
38866;DHT22;62686;48.984;8.394;2023-05-07T08:00:39;24.10;99.90
38866;DHT22;62686;48.984;8.394;2023-05-07T08:03:09;25.00;99.90
38866;DHT22;62686;48.984;8.394;2023-05-07T08:05:38;25.40;99.90
38866;DHT22;62686;48.984;8.394;2023-05-07T08:08:09;25.80;99.90
38866;DHT22;62686;48.984;8.394;2023-05-07T08:10:37;26.60;99.90
38866;DHT22;62686;48.984;8.394;2023-05-07T08:13:07;27.40;99.90
38866;DHT22;62686;48.984;8.394;2023-05-07T08:26:18;28.70;99.90
38866;DHT22;62686;48.984;8.394;2023-05-07T08:28:47;30.30;97.40
38866;DHT22;62686;48.984;8.394;2023-05-07T08:31:15;30.20;95.90
38866;DHT22;62686;48.984;8.394;2023-05-07T08:33:43;29.70;97.00
38866;DHT22;62686;48.984;8.394;2023-05-07T08:36:11;29.50;96.20
38866;DHT22;62686;48.984;8.394;2023-05-07T08:38:40;29.50;96.80
38866;DHT22;62686;48.984;8.394;2023-05-07T08:41:10;28.70;97.20
38866;DHT22;62686;48.984;8.394;2023-05-07T08:43:41;28.60;97.50
38866;DHT22;62686;48.984;8.394;2023-05-07T08:46:09;29.40;97.10
38866;DHT22;62686;48.984;8.394;2023-05-07T08:48:41;29.70;95.80
38866;DHT22;62686;48.984;8.394;2023-05-07T08:51:12;30.80;96.90
38866;DHT22;62686;48.984;8.394;2023-05-07T08:53:41;31.30;95.00
38866;DHT22;62686;48.984;8.394;2023-05-07T08:56:11;31.30;93.70
38866;DHT22;62686;48.984;8.394;2023-05-07T08:58:41;31.00;94.70
38866;DHT22;62686;48.984;8.394;2023-05-07T09:01:13;31.40;94.80
38866;DHT22;62686;48.984;8.394;2023-05-07T09:03:44;31.60;91.30
38866;DHT22;62686;48.984;8.394;2023-05-07T09:06:15;31.50;91.90
38866;DHT22;62686;48.984;8.394;2023-05-07T09:08:50;32.50;91.80
38866;DHT22;62686;48.984;8.394;2023-05-07T09:11:21;32.50;89.10
38866;DHT22;62686;48.984;8.394;2023-05-07T09:13:54;33.60;90.60
38866;DHT22;62686;48.984;8.394;2023-05-07T09:16:26;33.90;90.20
38866;DHT22;62686;48.984;8.394;2023-05-07T09:18:59;33.40;87.60
38866;DHT22;62686;48.984;8.394;2023-05-07T09:21:27;33.80;88.80
38866;DHT22;62686;48.984;8.394;2023-05-07T09:23:56;33.80;87.20
38866;DHT22;62686;48.984;8.394;2023-05-07T09:26:25;33.60;88.30
38866;DHT22;62686;48.984;8.394;2023-05-07T09:28:56;32.50;86.40
38866;DHT22;62686;48.984;8.394;2023-05-07T09:31:28;31.70;85.70
38866;DHT22;62686;48.984;8.394;2023-05-07T09:34:00;31.70;90.00
38866;DHT22;62686;48.984;8.394;2023-05-07T09:36:28;32.40;90.90
38866;DHT22;62686;48.984;8.394;2023-05-07T09:38:59;32.80;89.70
38866;DHT22;62686;48.984;8.394;2023-05-07T09:41:30;32.70;85.60
38866;DHT22;62686;48.984;8.394;2023-05-07T09:44:00;32.90;84.70
38866;DHT22;62686;48.984;8.394;2023-05-07T09:46:38;32.70;87.20
38866;DHT22;62686;48.984;8.394;2023-05-07T09:49:09;32.30;84.00
38866;DHT22;62686;48.984;8.394;2023-05-07T09:51:48;31.70;90.60
38866;DHT22;62686;48.984;8.394;2023-05-07T09:54:26;31.00;91.70
38866;DHT22;62686;48.984;8.394;2023-05-07T09:57:00;30.30;90.80
38866;DHT22;62686;48.984;8.394;2023-05-07T10:04:50;28.80;93.60
38866;DHT22;62686;48.984;8.394;2023-05-07T10:07:18;28.60;92.90
38866;DHT22;62686;48.984;8.394;2023-05-07T10:09:49;28.10;93.30
38866;DHT22;62686;48.984;8.394;2023-05-07T10:12:18;26.40;93.80
38866;DHT22;62686;48.984;8.394;2023-05-07T10:14:47;26.10;98.50
38866;DHT22;62686;48.984;8.394;2023-05-07T10:17:17;26.70;98.90
38866;DHT22;62686;48.984;8.394;2023-05-07T10:19:49;27.10;95.40
38866;DHT22;62686;48.984;8.394;2023-05-07T10:22:19;27.10;98.90
38866;DHT22;62686;48.984;8.394;2023-05-07T10:24:49;26.70;95.10
38866;DHT22;62686;48.984;8.394;2023-05-07T10:27:20;26.50;94.70
38866;DHT22;62686;48.984;8.394;2023-05-07T10:29:54;26.40;95.20
38866;DHT22;62686;48.984;8.394;2023-05-07T10:32:38;26.10;96.50
38866;DHT22;62686;48.984;8.394;2023-05-07T10:35:12;26.10;97.80
38866;DHT22;62686;48.984;8.394;2023-05-07T10:37:42;25.60;96.10
38866;DHT22;62686;48.984;8.394;2023-05-07T10:40:12;25.50;97.80
38866;DHT22;62686;48.984;8.394;2023-05-07T10:42:53;25.70;97.40
38866;DHT22;62686;48.984;8.394;2023-05-07T10:45:23;26.10;96.80
38866;DHT22;62686;48.984;8.394;2023-05-07T10:48:13;26.30;95.50
38866;DHT22;62686;48.984;8.394;2023-05-07T10:51:19;26.30;96.10
38866;DHT22;62686;48.984;8.394;2023-05-07T10:53:47;26.80;95.40
38866;DHT22;62686;48.984;8.394;2023-05-07T10:56:26;26.80;95.70
38866;DHT22;62686;48.984;8.394;2023-05-07T10:58:55;27.50;96.30
38866;DHT22;62686;48.984;8.394;2023-05-07T11:01:53;27.30;95.00
38866;DHT22;62686;48.984;8.394;2023-05-07T11:04:22;26.80;94.80
38866;DHT22;62686;48.984;8.394;2023-05-07T11:07:23;27.70;94.80
38866;DHT22;62686;48.984;8.394;2023-05-07T11:09:56;28.80;94.90
38866;DHT22;62686;48.984;8.394;2023-05-07T11:12:50;30.20;93.80
38866;DHT22;62686;48.984;8.394;2023-05-07T11:15:39;31.40;87.40
38866;DHT22;62686;48.984;8.394;2023-05-07T11:18:08;31.40;89.20
38866;DHT22;62686;48.984;8.394;2023-05-07T11:20:50;33.10;90.10
38866;DHT22;62686;48.984;8.394;2023-05-07T11:23:58;34.70;83.50
38866;DHT22;62686;48.984;8.394;2023-05-07T11:26:30;35.60;78.40
38866;DHT22;62686;48.984;8.394;2023-05-07T11:31:40;35.60;74.00
38866;DHT22;62686;48.984;8.394;2023-05-07T11:34:09;35.80;73.00
38866;DHT22;62686;48.984;8.394;2023-05-07T11:36:42;35.60;72.40
38866;DHT22;62686;48.984;8.394;2023-05-07T11:39:29;34.90;73.70
38866;DHT22;62686;48.984;8.394;2023-05-07T11:41:58;34.60;73.60
38866;DHT22;62686;48.984;8.394;2023-05-07T11:44:41;34.10;76.50
38866;DHT22;62686;48.984;8.394;2023-05-07T11:47:10;34.40;77.10
38866;DHT22;62686;48.984;8.394;2023-05-07T11:49:38;33.70;77.40
38866;DHT22;62686;48.984;8.394;2023-05-07T11:52:07;34.90;79.60
38866;DHT22;62686;48.984;8.394;2023-05-07T11:54:37;35.00;75.70
38866;DHT22;62686;48.984;8.394;2023-05-07T11:57:05;34.40;77.10
38866;DHT22;62686;48.984;8.394;2023-05-07T11:59:38;34.00;78.00
38866;DHT22;62686;48.984;8.394;2023-05-07T12:02:09;34.20;75.20
38866;DHT22;62686;48.984;8.394;2023-05-07T12:04:38;35.30;75.50
38866;DHT22;62686;48.984;8.394;2023-05-07T12:07:11;35.70;71.80
38866;DHT22;62686;48.984;8.394;2023-05-07T12:09:41;36.70;71.50
38866;DHT22;62686;48.984;8.394;2023-05-07T12:12:10;35.80;72.60
38866;DHT22;62686;48.984;8.394;2023-05-07T12:14:39;34.90;74.60
38866;DHT22;62686;48.984;8.394;2023-05-07T12:17:07;34.30;77.00
38866;DHT22;62686;48.984;8.394;2023-05-07T12:19:37;33.90;76.80
38866;DHT22;62686;48.984;8.394;2023-05-07T12:22:05;33.70;78.50
38866;DHT22;62686;48.984;8.394;2023-05-07T12:24:47;32.90;77.30
38866;DHT22;62686;48.984;8.394;2023-05-07T12:27:16;32.30;78.70
38866;DHT22;62686;48.984;8.394;2023-05-07T12:29:45;32.60;81.00
38866;DHT22;62686;48.984;8.394;2023-05-07T12:32:13;32.40;81.60
38866;DHT22;62686;48.984;8.394;2023-05-07T12:34:42;31.90;81.20
38866;DHT22;62686;48.984;8.394;2023-05-07T12:37:11;31.60;80.90
38866;DHT22;62686;48.984;8.394;2023-05-07T12:39:47;31.20;82.20
38866;DHT22;62686;48.984;8.394;2023-05-07T12:42:16;30.50;90.00
38866;DHT22;62686;48.984;8.394;2023-05-07T12:44:50;30.10;88.30
38866;DHT22;62686;48.984;8.394;2023-05-07T12:47:19;30.20;87.20
38866;DHT22;62686;48.984;8.394;2023-05-07T12:49:48;29.30;89.50
38866;DHT22;62686;48.984;8.394;2023-05-07T12:52:16;29.20;90.20
38866;DHT22;62686;48.984;8.394;2023-05-07T12:54:48;28.50;89.00
38866;DHT22;62686;48.984;8.394;2023-05-07T12:57:19;28.90;90.00
38866;DHT22;62686;48.984;8.394;2023-05-07T12:59:48;29.30;90.40
38866;DHT22;62686;48.984;8.394;2023-05-07T13:02:16;29.20;89.80
38866;DHT22;62686;48.984;8.394;2023-05-07T13:04:45;29.10;88.90
38866;DHT22;62686;48.984;8.394;2023-05-07T13:07:14;29.30;90.00
38866;DHT22;62686;48.984;8.394;2023-05-07T13:09:42;28.90;89.20
38866;DHT22;62686;48.984;8.394;2023-05-07T13:12:12;29.10;88.20
38866;DHT22;62686;48.984;8.394;2023-05-07T13:14:40;29.40;90.20
38866;DHT22;62686;48.984;8.394;2023-05-07T13:17:08;30.40;91.20
38866;DHT22;62686;48.984;8.394;2023-05-07T13:19:36;31.20;87.70
38866;DHT22;62686;48.984;8.394;2023-05-07T13:22:05;31.50;84.20
38866;DHT22;62686;48.984;8.394;2023-05-07T13:24:33;32.30;83.80
38866;DHT22;62686;48.984;8.394;2023-05-07T13:27:02;32.10;81.30
38866;DHT22;62686;48.984;8.394;2023-05-07T13:29:32;32.10;81.00
38866;DHT22;62686;48.984;8.394;2023-05-07T13:32:00;31.60;80.80
38866;DHT22;62686;48.984;8.394;2023-05-07T13:34:28;31.50;83.10
38866;DHT22;62686;48.984;8.394;2023-05-07T13:36:57;31.60;81.90
38866;DHT22;62686;48.984;8.394;2023-05-07T13:39:25;32.00;80.00
38866;DHT22;62686;48.984;8.394;2023-05-07T13:41:54;31.80;78.90
38866;DHT22;62686;48.984;8.394;2023-05-07T13:44:22;32.10;83.60
38866;DHT22;62686;48.984;8.394;2023-05-07T13:46:53;32.10;82.90
38866;DHT22;62686;48.984;8.394;2023-05-07T13:49:22;31.60;84.50
38866;DHT22;62686;48.984;8.394;2023-05-07T13:51:50;30.40;84.00
38866;DHT22;62686;48.984;8.394;2023-05-07T13:54:19;30.10;85.70
38866;DHT22;62686;48.984;8.394;2023-05-07T13:56:47;29.80;85.50
38866;DHT22;62686;48.984;8.394;2023-05-07T13:59:15;29.30;87.10
38866;DHT22;62686;48.984;8.394;2023-05-07T14:01:43;29.20;86.90
38866;DHT22;62686;48.984;8.394;2023-05-07T14:04:13;29.00;89.60
38866;DHT22;62686;48.984;8.394;2023-05-07T14:06:41;28.80;90.30
38866;DHT22;62686;48.984;8.394;2023-05-07T14:09:09;28.70;91.10
38866;DHT22;62686;48.984;8.394;2023-05-07T14:11:40;28.50;92.10
38866;DHT22;62686;48.984;8.394;2023-05-07T14:14:09;27.80;92.20
38866;DHT22;62686;48.984;8.394;2023-05-07T14:16:38;27.00;93.60
38866;DHT22;62686;48.984;8.394;2023-05-07T14:19:06;26.50;93.80
38866;DHT22;62686;48.984;8.394;2023-05-07T14:21:36;26.40;93.80
38866;DHT22;62686;48.984;8.394;2023-05-07T14:24:06;26.10;93.50
38866;DHT22;62686;48.984;8.394;2023-05-07T14:26:34;26.10;93.00
38866;DHT22;62686;48.984;8.394;2023-05-07T14:29:03;25.90;91.30
38866;DHT22;62686;48.984;8.394;2023-05-07T14:31:31;26.10;91.80
38866;DHT22;62686;48.984;8.394;2023-05-07T14:34:00;26.20;90.90
38866;DHT22;62686;48.984;8.394;2023-05-07T14:36:29;26.20;90.40
38866;DHT22;62686;48.984;8.394;2023-05-07T14:39:00;26.20;91.10
38866;DHT22;62686;48.984;8.394;2023-05-07T14:41:28;26.00;89.60
38866;DHT22;62686;48.984;8.394;2023-05-07T14:43:56;26.00;90.10
38866;DHT22;62686;48.984;8.394;2023-05-07T14:46:25;26.00;88.80
38866;DHT22;62686;48.984;8.394;2023-05-07T14:48:53;25.80;89.60
38866;DHT22;62686;48.984;8.394;2023-05-07T14:51:22;25.80;91.10
38866;DHT22;62686;48.984;8.394;2023-05-07T14:53:50;26.00;90.00
38866;DHT22;62686;48.984;8.394;2023-05-07T14:56:20;26.40;90.00
38866;DHT22;62686;48.984;8.394;2023-05-07T14:58:52;26.90;90.00
38866;DHT22;62686;48.984;8.394;2023-05-07T15:01:21;27.60;90.50
38866;DHT22;62686;48.984;8.394;2023-05-07T15:03:50;27.90;88.40
38866;DHT22;62686;48.984;8.394;2023-05-07T15:06:18;28.20;88.60
38866;DHT22;62686;48.984;8.394;2023-05-07T15:08:46;28.10;88.80
38866;DHT22;62686;48.984;8.394;2023-05-07T15:11:15;28.10;87.90
38866;DHT22;62686;48.984;8.394;2023-05-07T15:13:45;27.90;88.20
38866;DHT22;62686;48.984;8.394;2023-05-07T15:16:13;27.50;90.30
38866;DHT22;62686;48.984;8.394;2023-05-07T15:18:42;27.30;89.50
38866;DHT22;62686;48.984;8.394;2023-05-07T15:21:10;27.30;89.40
38866;DHT22;62686;48.984;8.394;2023-05-07T15:23:38;26.90;89.20
38866;DHT22;62686;48.984;8.394;2023-05-07T15:26:07;26.60;90.20
38866;DHT22;62686;48.984;8.394;2023-05-07T15:28:36;26.30;90.80
38866;DHT22;62686;48.984;8.394;2023-05-07T15:31:07;26.00;91.70
38866;DHT22;62686;48.984;8.394;2023-05-07T15:33:35;25.60;92.80
38866;DHT22;62686;48.984;8.394;2023-05-07T15:36:05;25.40;93.40
38866;DHT22;62686;48.984;8.394;2023-05-07T15:38:33;25.20;94.80
38866;DHT22;62686;48.984;8.394;2023-05-07T15:41:02;25.00;93.90
38866;DHT22;62686;48.984;8.394;2023-05-07T15:43:30;24.70;94.10
38866;DHT22;62686;48.984;8.394;2023-05-07T15:45:58;24.30;94.60
38866;DHT22;62686;48.984;8.394;2023-05-07T15:48:28;24.00;95.30
38866;DHT22;62686;48.984;8.394;2023-05-07T15:50:57;23.90;96.00
38866;DHT22;62686;48.984;8.394;2023-05-07T15:53:27;24.00;96.70
38866;DHT22;62686;48.984;8.394;2023-05-07T15:55:55;23.90;97.30
38866;DHT22;62686;48.984;8.394;2023-05-07T15:58:25;23.80;96.50
38866;DHT22;62686;48.984;8.394;2023-05-07T16:00:54;23.60;97.00
38866;DHT22;62686;48.984;8.394;2023-05-07T16:03:22;23.40;97.90
38866;DHT22;62686;48.984;8.394;2023-05-07T16:05:53;23.20;98.60